Time,TemperatureF,DewpointF,PressureIn,WindDirection,WindDirectionDegrees,WindSpeedMPH,WindSpeedGustMPH,Humidity,HourlyPrecipIn,Conditions,Clouds,dailyrainin,SoftwareType,DateUTC
2015-01-31 00:05:00,16.6,13.0,30.46,NNE,29,0.0,0.0,86,0.00,,,0.00,weatherlink.com 1.10,2015-01-31 05:05:00,
2015-01-31 00:20:00,16.3,13.0,30.46,NNE,28,0.0,0.0,86,0.00,,,0.00,weatherlink.com 1.10,2015-01-31 05:20:00,
2015-01-31 00:36:00,16.2,13.0,30.46,NNE,28,0.0,0.0,87,0.00,,,0.00,weatherlink.com 1.10,2015-01-31 05:36:00,
2015-01-31 00:50:00,16.2,13.0,30.45,NNE,28,0.0,0.0,87,0.00,,,0.00,weatherlink.com 1.10,2015-01-31 05:50:00,
2015-01-31 01:05:00,16.0,13.0,30.45,NNE,28,0.0,0.0,87,0.00,,,0.00,weatherlink.com 1.10,2015-01-31 06:05:00,
2015-01-31 01:20:00,15.6,12.0,30.45,NNE,29,0.0,0.0,87,0.00,,,0.00,weatherlink.com 1.10,2015-01-31 06:20:00,
2015-01-31 01:35:00,15.8,13.0,30.45,NNE,29,0.0,0.0,87,0.00,,,0.00,weatherlink.com 1.10,2015-01-31 06:35:00,
2015-01-31 01:50:00,15.9,13.0,30.45,NNE,29,0.0,0.0,87,0.00,,,0.00,weatherlink.com 1.10,2015-01-31 06:50:00,
2015-01-31 02:06:00,16.1,13.0,30.44,NE,34,0.0,0.0,87,0.00,,,0.00,weatherlink.com 1.10,2015-01-31 07:06:00,
2015-01-31 02:21:00,16.1,13.0,30.44,East,81,0.0,0.0,87,0.00,,,0.00,weatherlink.com 1.10,2015-01-31 07:21:00,
2015-01-31 02:36:00,16.3,13.0,30.44,ESE,113,0.0,0.0,87,0.00,,,0.00,weatherlink.com 1.10,2015-01-31 07:36:00,
2015-01-31 02:51:00,16.2,13.0,30.44,ESE,113,0.0,0.0,87,0.00,,,0.00,weatherlink.com 1.10,2015-01-31 07:51:00,
2015-01-31 03:06:00,16.0,13.0,30.44,ESE,113,0.0,0.0,87,0.00,,,0.00,weatherlink.com 1.10,2015-01-31 08:06:00,
2015-01-31 03:21:00,15.6,12.0,30.43,ESE,113,0.0,0.0,87,0.00,,,0.00,weatherlink.com 1.10,2015-01-31 08:21:00,
2015-01-31 03:36:00,15.5,12.0,30.43,ESE,113,0.0,0.0,87,0.00,,,0.00,weatherlink.com 1.10,2015-01-31 08:36:00,
2015-01-31 03:51:00,15.4,13.0,30.43,ESE,113,0.0,0.0,88,0.00,,,0.00,weatherlink.com 1.10,2015-01-31 08:51:00,
2015-01-31 04:06:00,15.3,12.0,30.42,ESE,113,0.0,0.0,88,0.00,,,0.00,weatherlink.com 1.10,2015-01-31 09:06:00,
2015-01-31 04:21:00,15.2,12.0,30.42,ESE,113,0.0,0.0,88,0.00,,,0.00,weatherlink.com 1.10,2015-01-31 09:21:00,
2015-01-31 04:36:00,15.0,12.0,30.41,ESE,113,0.0,0.0,89,0.00,,,0.00,weatherlink.com 1.10,2015-01-31 09:36:00,
2015-01-31 04:51:00,15.2,13.0,30.41,ESE,116,0.0,0.0,89,0.00,,,0.00,weatherlink.com 1.10,2015-01-31 09:51:00,
2015-01-31 05:06:00,15.7,13.0,30.41,ESE,117,0.0,0.0,89,0.00,,,0.00,weatherlink.com 1.10,2015-01-31 10:06:00,
2015-01-31 05:21:00,15.8,13.0,30.41,ESE,117,0.0,0.0,88,0.00,,,0.00,weatherlink.com 1.10,2015-01-31 10:21:00,
2015-01-31 05:36:00,15.9,13.0,30.40,ESE,117,0.0,0.0,88,0.00,,,0.00,weatherlink.com 1.10,2015-01-31 10:36:00,
2015-01-31 05:51:00,15.9,13.0,30.40,ESE,117,0.0,0.0,87,0.00,,,0.00,weatherlink.com 1.10,2015-01-31 10:51:00,
2015-01-31 06:06:00,15.5,12.0,30.40,ESE,117,0.0,0.0,87,0.00,,,0.00,weatherlink.com 1.10,2015-01-31 11:06:00,
2015-01-31 06:21:00,15.2,12.0,30.40,ESE,117,0.0,0.0,88,0.00,,,0.00,weatherlink.com 1.10,2015-01-31 11:21:00,
2015-01-31 06:36:00,15.5,13.0,30.40,ESE,117,0.0,0.0,88,0.00,,,0.00,weatherlink.com 1.10,2015-01-31 11:36:00,
2015-01-31 06:51:00,15.5,12.0,30.40,ESE,117,0.0,0.0,87,0.00,,,0.00,weatherlink.com 1.10,2015-01-31 11:51:00,
2015-01-31 07:06:00,15.5,12.0,30.41,ESE,117,0.0,0.0,87,0.00,,,0.00,weatherlink.com 1.10,2015-01-31 12:06:00,
2015-01-31 07:21:00,15.4,12.0,30.41,ESE,117,0.0,0.0,87,0.00,,,0.00,weatherlink.com 1.10,2015-01-31 12:21:00,
2015-01-31 07:36:00,15.5,13.0,30.40,ESE,117,0.0,0.0,88,0.00,,,0.00,weatherlink.com 1.10,2015-01-31 12:36:00,
2015-01-31 07:51:00,15.5,12.0,30.41,ESE,119,0.0,0.0,87,0.00,,,0.00,weatherlink.com 1.10,2015-01-31 12:51:00,
2015-01-31 08:06:00,15.8,13.0,30.41,ESE,118,0.0,0.0,88,0.00,,,0.00,weatherlink.com 1.10,2015-01-31 13:06:00,
2015-01-31 08:21:00,17.3,14.0,30.41,ESE,120,0.0,0.0,88,0.00,,,0.00,weatherlink.com 1.10,2015-01-31 13:21:00,
2015-01-31 08:36:00,18.7,15.0,30.41,SSE,163,0.0,0.0,86,0.00,,,0.00,weatherlink.com 1.10,2015-01-31 13:36:00,
2015-01-31 08:51:00,20.8,16.0,30.41,SSE,167,0.0,1.0,83,0.00,,,0.00,weatherlink.com 1.10,2015-01-31 13:51:00,
2015-01-31 09:06:00,22.4,17.0,30.41,SSW,208,0.0,2.0,79,0.00,,,0.00,weatherlink.com 1.10,2015-01-31 14:06:00,
2015-01-31 09:21:00,23.3,17.0,30.41,SSW,204,2.0,3.0,77,0.00,,,0.00,weatherlink.com 1.10,2015-01-31 14:21:00,
2015-01-31 09:36:00,24.3,18.0,30.41,SSE,168,1.0,2.0,76,0.00,,,0.00,weatherlink.com 1.10,2015-01-31 14:36:00,
2015-01-31 09:51:00,24.8,18.0,30.41,SW,231,0.0,5.0,75,0.00,,,0.00,weatherlink.com 1.10,2015-01-31 14:51:00,
2015-01-31 10:06:00,26.0,18.0,30.41,South,187,3.0,5.0,73,0.00,,,0.00,weatherlink.com 1.10,2015-01-31 15:06:00,
2015-01-31 10:21:00,26.7,19.0,30.41,SW,225,0.0,3.0,74,0.00,,,0.00,weatherlink.com 1.10,2015-01-31 15:21:00,
2015-01-31 10:36:00,27.5,20.0,30.42,WSW,247,2.0,3.0,74,0.00,,,0.00,weatherlink.com 1.10,2015-01-31 15:36:00,
2015-01-31 10:52:00,28.6,21.0,30.42,WSW,245,1.0,4.0,72,0.00,,,0.00,weatherlink.com 1.10,2015-01-31 15:52:00,
2015-01-31 11:07:00,29.7,21.0,30.41,SW,225,2.0,5.0,70,0.00,,,0.00,weatherlink.com 1.10,2015-01-31 16:07:00,
2015-01-31 11:22:00,30.7,21.0,30.41,SW,228,4.0,5.0,67,0.00,,,0.00,weatherlink.com 1.10,2015-01-31 16:22:00,
2015-01-31 11:37:00,31.4,21.0,30.40,SW,219,2.0,8.0,65,0.00,,,0.00,weatherlink.com 1.10,2015-01-31 16:37:00,
2015-01-31 11:52:00,32.1,21.0,30.39,WSW,240,0.0,7.0,65,0.00,,,0.00,weatherlink.com 1.10,2015-01-31 16:52:00,